Time;durP1;ratioP1;P1;durP2;ratioP2;P2;SDS_P1;SDS_P2;PMS_P1;PMS_P2;Temp;Humidity;BMP_temperature;BMP_pressure;BME280_temperature;BME280_humidity;BME280_pressure;Samples;Min_cycle;Max_cycle;Signal;HPM_P1;HPM_P2
2021/05/24 00:02:07;;;;;;;;;;;9.30;99.90;;;;;;5056746;28;19952;-77
2021/05/24 00:04:33;;;;;;;;;;;9.20;99.90;;;;;;5057166;28;19912;-77
2021/05/24 00:06:58;;;;;;;;;;;9.20;99.90;;;;;;5072415;28;19904;-77
2021/05/24 00:09:23;;;;;;;;;;;9.20;99.90;;;;;;5072495;28;19912;-77
2021/05/24 00:11:51;;;;;;;;;;;9.20;99.90;;;;;;5055215;28;19908;-77
2021/05/24 00:14:19;;;;;;;;;;;9.10;99.90;;;;;;5057056;28;19908;-77
2021/05/24 00:16:44;;;;;;;;;;;9.10;99.90;;;;;;5057018;28;20351;-77
2021/05/24 00:19:10;;;;;;;;;;;9.10;99.90;;;;;;5055271;28;20003;-77
2021/05/24 00:21:35;;;;;;;;;;;9.10;99.90;;;;;;5056586;28;19912;-76
2021/05/24 00:24:01;;;;;;;;;;;9.10;99.90;;;;;;5056767;28;20364;-77
2021/05/24 00:26:26;;;;;;;;;;;9.10;99.90;;;;;;5056467;28;19904;-77
2021/05/24 00:28:52;;;;;;;;;;;9.00;99.90;;;;;;5071814;28;20389;-77
2021/05/24 00:31:18;;;;;;;;;;;9.10;99.90;;;;;;5056477;28;19904;-77
2021/05/24 00:33:43;;;;;;;;;;;9.20;99.90;;;;;;5056713;28;19992;-77
2021/05/24 00:36:09;;;;;;;;;;;9.10;99.90;;;;;;5055151;28;19935;-77
2021/05/24 00:38:34;;;;;;;;;;;9.00;99.90;;;;;;5060289;28;19938;-77
2021/05/24 00:41:00;;;;;;;;;;;9.10;99.90;;;;;;5062657;28;20170;-77
2021/05/24 00:43:25;;;;;;;;;;;9.20;99.90;;;;;;5065625;28;19904;-77
2021/05/24 00:45:50;;;;;;;;;;;9.20;99.90;;;;;;5060149;28;19982;-77
2021/05/24 00:48:16;;;;;;;;;;;9.20;99.90;;;;;;5056063;28;19912;-77
2021/05/24 00:50:42;;;;;;;;;;;9.00;99.90;;;;;;5055954;28;19905;-77
2021/05/24 00:53:07;;;;;;;;;;;8.90;99.90;;;;;;5054698;28;19905;-77
2021/05/24 00:55:33;;;;;;;;;;;8.80;99.90;;;;;;5054968;28;19905;-77
2021/05/24 00:57:58;;;;;;;;;;;8.80;99.90;;;;;;5054975;28;19909;-77
2021/05/24 01:00:26;;;;;;;;;;;8.70;99.90;;;;;;5054299;28;20045;-77
2021/05/24 01:02:52;;;;;;;;;;;8.70;99.90;;;;;;5054783;28;19904;-77
2021/05/24 01:05:18;;;;;;;;;;;8.60;99.90;;;;;;5054572;28;19935;-77
2021/05/24 01:07:43;;;;;;;;;;;8.50;99.90;;;;;;5055834;28;19912;-77
2021/05/24 01:10:09;;;;;;;;;;;8.40;99.90;;;;;;5054561;28;19956;-77
2021/05/24 01:12:34;;;;;;;;;;;8.40;99.90;;;;;;5056104;28;19905;-77
2021/05/24 01:15:00;;;;;;;;;;;8.30;99.90;;;;;;5054419;28;19912;-76
2021/05/24 01:17:25;;;;;;;;;;;8.30;99.90;;;;;;5056450;28;19905;-78
2021/05/24 01:19:51;;;;;;;;;;;8.30;99.90;;;;;;5056394;28;19911;-78
2021/05/24 01:22:21;;;;;;;;;;;8.20;99.90;;;;;;5054921;28;19924;-77
2021/05/24 01:24:48;;;;;;;;;;;8.10;99.90;;;;;;5056549;28;19905;-77
2021/05/24 01:27:13;;;;;;;;;;;8.20;99.90;;;;;;5055560;28;20334;-77
2021/05/24 01:29:39;;;;;;;;;;;8.20;99.90;;;;;;5056287;28;19915;-77
2021/05/24 01:32:05;;;;;;;;;;;8.20;99.90;;;;;;5056389;28;19905;-77
2021/05/24 01:34:32;;;;;;;;;;;8.20;99.90;;;;;;5054886;28;19992;-77
2021/05/24 01:36:57;;;;;;;;;;;8.30;99.90;;;;;;5054799;28;19999;-77
2021/05/24 01:39:22;;;;;;;;;;;8.30;99.90;;;;;;5054468;28;19975;-77
2021/05/24 01:41:48;;;;;;;;;;;8.30;99.90;;;;;;5056094;28;19905;-77
2021/05/24 01:44:25;;;;;;;;;;;8.30;99.90;;;;;;5054516;28;19908;-78
2021/05/24 01:46:51;;;;;;;;;;;8.30;99.90;;;;;;5055020;28;19904;-78
2021/05/24 01:49:16;;;;;;;;;;;8.40;99.90;;;;;;5055823;28;19982;-77
2021/05/24 01:51:42;;;;;;;;;;;8.50;99.90;;;;;;5055526;28;19909;-77
2021/05/24 01:54:07;;;;;;;;;;;8.30;99.90;;;;;;5055814;28;19908;-78
2021/05/24 01:56:32;;;;;;;;;;;8.30;99.90;;;;;;5054984;28;19912;-77
2021/05/24 01:58:58;;;;;;;;;;;8.30;99.90;;;;;;5053522;28;20463;-77
2021/05/24 02:01:23;;;;;;;;;;;8.30;99.90;;;;;;5053938;28;19909;-77
2021/05/24 02:03:49;;;;;;;;;;;8.30;99.90;;;;;;5054960;28;20376;-77
2021/05/24 02:06:14;;;;;;;;;;;8.30;99.90;;;;;;5053927;28;20368;-77
2021/05/24 02:08:40;;;;;;;;;;;8.20;99.90;;;;;;5054564;28;19934;-77
2021/05/24 02:11:05;;;;;;;;;;;8.30;99.90;;;;;;5053760;28;19909;-77
2021/05/24 02:13:31;;;;;;;;;;;8.20;99.90;;;;;;5053615;28;20366;-76
2021/05/24 02:15:56;;;;;;;;;;;8.20;99.90;;;;;;5054676;28;19904;-77
2021/05/24 02:18:22;;;;;;;;;;;8.20;99.90;;;;;;5054615;28;19905;-77
2021/05/24 02:20:48;;;;;;;;;;;8.20;99.90;;;;;;5054392;28;19917;-77
2021/05/24 02:23:13;;;;;;;;;;;8.20;99.90;;;;;;5054747;28;19954;-77
2021/05/24 02:25:39;;;;;;;;;;;8.10;99.90;;;;;;5053445;28;19905;-77
2021/05/24 02:28:04;;;;;;;;;;;7.90;99.90;;;;;;5054717;28;20003;-77
2021/05/24 02:30:30;;;;;;;;;;;7.90;99.90;;;;;;5054407;28;19905;-77
2021/05/24 02:32:56;;;;;;;;;;;7.90;99.90;;;;;;5053644;28;19905;-78
2021/05/24 02:35:23;;;;;;;;;;;7.80;99.90;;;;;;5054551;28;20363;-77
2021/05/24 02:37:48;;;;;;;;;;;7.80;99.90;;;;;;5053244;28;19912;-77
2021/05/24 02:40:15;;;;;;;;;;;7.80;99.90;;;;;;5054536;28;19905;-77
2021/05/24 02:42:41;;;;;;;;;;;7.80;99.90;;;;;;5052924;28;19905;-77
2021/05/24 02:45:08;;;;;;;;;;;7.80;99.90;;;;;;5054835;28;19904;-77
2021/05/24 02:47:34;;;;;;;;;;;7.70;99.90;;;;;;5052831;28;19911;-77
2021/05/24 02:49:59;;;;;;;;;;;7.70;99.90;;;;;;5053923;28;19905;-77
2021/05/24 02:52:25;;;;;;;;;;;7.70;99.90;;;;;;5053703;28;19911;-77
2021/05/24 02:54:50;;;;;;;;;;;7.70;99.90;;;;;;5053912;28;19905;-77
2021/05/24 02:57:16;;;;;;;;;;;7.70;99.90;;;;;;5052797;28;20027;-77
2021/05/24 02:59:41;;;;;;;;;;;7.60;99.90;;;;;;5051892;28;20279;-77
2021/05/24 03:02:11;;;;;;;;;;;7.60;99.90;;;;;;5052593;28;19959;-77
2021/05/24 03:04:37;;;;;;;;;;;7.60;99.90;;;;;;5054208;28;19905;-77
2021/05/24 03:07:03;;;;;;;;;;;7.60;99.90;;;;;;5052724;28;20364;-77
2021/05/24 03:09:29;;;;;;;;;;;7.60;99.90;;;;;;5053434;28;19962;-77
2021/05/24 03:11:55;;;;;;;;;;;7.60;99.90;;;;;;5054024;28;20003;-77
2021/05/24 03:14:20;;;;;;;;;;;7.60;99.90;;;;;;5053655;28;19912;-77
2021/05/24 03:16:46;;;;;;;;;;;7.60;99.90;;;;;;5052428;28;20278;-77
2021/05/24 03:19:11;;;;;;;;;;;7.60;99.90;;;;;;5053269;28;20003;-77
2021/05/24 03:21:36;;;;;;;;;;;7.60;99.90;;;;;;5055100;28;19967;-77
2021/05/24 03:24:02;;;;;;;;;;;7.50;99.90;;;;;;5057659;28;19919;-77
2021/05/24 03:26:27;;;;;;;;;;;7.50;99.90;;;;;;5057559;28;19996;-77
2021/05/24 03:28:53;;;;;;;;;;;7.50;99.90;;;;;;5057359;28;20565;-77
2021/05/24 03:31:19;;;;;;;;;;;7.50;99.90;;;;;;5057524;28;19911;-77
2021/05/24 03:33:45;;;;;;;;;;;7.50;99.90;;;;;;5056158;28;19909;-77
2021/05/24 03:36:10;;;;;;;;;;;7.60;99.90;;;;;;5056182;28;19943;-77
2021/05/24 03:38:36;;;;;;;;;;;7.50;99.90;;;;;;5057294;28;19904;-77
2021/05/24 03:41:03;;;;;;;;;;;7.50;99.90;;;;;;5057549;28;20283;-77
2021/05/24 03:43:29;;;;;;;;;;;7.60;99.90;;;;;;5056536;28;19905;-77
2021/05/24 03:45:54;;;;;;;;;;;7.50;99.90;;;;;;5056101;28;19958;-77
2021/05/24 03:48:20;;;;;;;;;;;7.50;99.90;;;;;;5057039;28;20390;-77
2021/05/24 03:50:45;;;;;;;;;;;7.50;99.90;;;;;;5055779;28;20411;-78
2021/05/24 03:53:11;;;;;;;;;;;7.50;99.90;;;;;;5057328;28;19904;-77
2021/05/24 03:55:37;;;;;;;;;;;7.50;99.90;;;;;;5055665;28;19904;-77
2021/05/24 03:58:02;;;;;;;;;;;7.40;99.90;;;;;;5056687;28;19904;-77
2021/05/24 04:00:28;;;;;;;;;;;7.50;99.90;;;;;;5055389;28;19954;-77
2021/05/24 04:02:53;;;;;;;;;;;7.60;99.90;;;;;;5057012;28;19932;-77
2021/05/24 04:05:22;;;;;;;;;;;7.60;99.90;;;;;;5055605;28;20374;-77
2021/05/24 04:07:53;;;;;;;;;;;7.70;99.90;;;;;;5056550;28;19915;-77
2021/05/24 04:10:21;;;;;;;;;;;7.80;99.90;;;;;;5055418;28;19911;-77
2021/05/24 04:12:47;;;;;;;;;;;7.90;99.90;;;;;;5056756;28;19991;-77
2021/05/24 04:15:14;;;;;;;;;;;8.00;99.90;;;;;;5056896;28;19936;-77
2021/05/24 04:17:40;;;;;;;;;;;8.20;99.90;;;;;;5055258;28;20006;-77
2021/05/24 04:20:07;;;;;;;;;;;8.20;99.90;;;;;;5054784;28;19905;-77
2021/05/24 04:22:33;;;;;;;;;;;8.30;99.90;;;;;;5055296;28;19912;-77
2021/05/24 04:24:58;;;;;;;;;;;8.40;99.90;;;;;;5056619;28;19912;-77
2021/05/24 04:27:24;;;;;;;;;;;8.50;99.90;;;;;;5055323;28;19999;-77
2021/05/24 04:29:49;;;;;;;;;;;8.60;99.90;;;;;;5056359;28;20175;-77
2021/05/24 04:32:15;;;;;;;;;;;8.70;99.90;;;;;;5055376;28;19912;-77
2021/05/24 04:34:40;;;;;;;;;;;8.80;99.90;;;;;;5055444;28;19954;-77
2021/05/24 04:37:06;;;;;;;;;;;8.80;99.90;;;;;;5054879;28;19944;-77
2021/05/24 04:39:31;;;;;;;;;;;8.90;99.90;;;;;;5055512;28;20367;-77
2021/05/24 04:41:58;;;;;;;;;;;8.90;99.90;;;;;;5054750;28;20443;-77
2021/05/24 04:44:24;;;;;;;;;;;9.00;99.90;;;;;;5055824;28;19987;-77
2021/05/24 04:46:49;;;;;;;;;;;9.00;99.90;;;;;;5054830;28;19936;-77
2021/05/24 04:49:15;;;;;;;;;;;9.10;99.90;;;;;;5054412;28;19913;-77
2021/05/24 04:51:40;;;;;;;;;;;9.20;99.90;;;;;;5054057;28;19905;-77
2021/05/24 04:54:06;;;;;;;;;;;9.30;99.90;;;;;;5055060;28;20276;-77
2021/05/24 04:56:35;;;;;;;;;;;9.40;99.90;;;;;;5053035;28;19958;-77
2021/05/24 04:59:01;;;;;;;;;;;9.40;99.90;;;;;;5054204;28;19904;-77
2021/05/24 05:01:27;;;;;;;;;;;9.50;99.90;;;;;;5053667;28;20355;-77
2021/05/24 05:03:52;;;;;;;;;;;9.60;99.90;;;;;;5054721;28;19905;-77
2021/05/24 05:06:18;;;;;;;;;;;9.80;99.90;;;;;;5053421;28;20439;-78
2021/05/24 05:08:43;;;;;;;;;;;9.90;99.90;;;;;;5054282;28;19915;-77
2021/05/24 05:11:09;;;;;;;;;;;10.00;99.90;;;;;;5054564;28;19927;-77
2021/05/24 05:13:34;;;;;;;;;;;10.20;99.90;;;;;;5053500;28;20378;-78
2021/05/24 05:16:00;;;;;;;;;;;10.30;99.90;;;;;;5054970;28;20338;-77
2021/05/24 05:18:25;;;;;;;;;;;10.30;99.90;;;;;;5053804;28;19908;-77
2021/05/24 05:20:51;;;;;;;;;;;10.40;99.90;;;;;;5054057;28;19939;-77
2021/05/24 05:23:16;;;;;;;;;;;10.70;99.90;;;;;;5053067;28;19908;-77
2021/05/24 05:25:41;;;;;;;;;;;10.60;99.90;;;;;;5056656;28;19936;-77
2021/05/24 05:28:07;;;;;;;;;;;10.70;99.90;;;;;;5061894;28;19908;-77
2021/05/24 05:30:33;;;;;;;;;;;10.70;99.90;;;;;;5063304;28;20264;-77
2021/05/24 05:32:58;;;;;;;;;;;11.00;99.90;;;;;;5060639;28;19904;-77
2021/05/24 05:35:24;;;;;;;;;;;11.10;99.90;;;;;;5063737;28;19908;-77
2021/05/24 05:37:51;;;;;;;;;;;10.90;99.90;;;;;;5060660;28;20046;-77
2021/05/24 05:40:17;;;;;;;;;;;10.90;99.90;;;;;;5060730;28;20057;-77
2021/05/24 05:42:43;;;;;;;;;;;11.00;99.90;;;;;;5062688;28;19904;-77
2021/05/24 05:45:10;;;;;;;;;;;11.00;99.90;;;;;;5061661;28;19911;-77
2021/05/24 05:47:35;;;;;;;;;;;11.00;99.90;;;;;;5065428;28;19916;-77
2021/05/24 05:50:01;;;;;;;;;;;11.10;99.90;;;;;;5061291;28;19904;-77
2021/05/24 05:52:26;;;;;;;;;;;11.10;99.90;;;;;;5063356;28;19904;-77
2021/05/24 05:54:52;;;;;;;;;;;11.20;99.90;;;;;;5062607;28;19904;-78
2021/05/24 05:57:17;;;;;;;;;;;11.40;99.90;;;;;;5061745;28;20347;-78
2021/05/24 05:59:43;;;;;;;;;;;11.40;99.90;;;;;;5060608;28;20003;-78
2021/05/24 06:02:08;;;;;;;;;;;11.50;99.90;;;;;;5051622;28;19932;-78
2021/05/24 06:04:34;;;;;;;;;;;11.70;99.90;;;;;;5051887;28;20004;-78
2021/05/24 06:06:59;;;;;;;;;;;11.70;99.90;;;;;;5052032;28;20249;-78
2021/05/24 06:09:25;;;;;;;;;;;12.00;99.90;;;;;;5051879;28;19915;-79
2021/05/24 06:11:52;;;;;;;;;;;12.20;99.90;;;;;;5051868;28;19934;-78
2021/05/24 06:14:19;;;;;;;;;;;12.30;99.90;;;;;;5051619;28;19999;-78
2021/05/24 06:16:46;;;;;;;;;;;12.70;99.90;;;;;;5052249;28;19911;-78
2021/05/24 06:19:11;;;;;;;;;;;12.80;99.90;;;;;;5053349;28;20322;-78
2021/05/24 06:21:37;;;;;;;;;;;12.80;99.90;;;;;;5051610;28;19920;-78
2021/05/24 06:24:02;;;;;;;;;;;12.80;99.90;;;;;;5053551;28;19904;-78
2021/05/24 06:26:28;;;;;;;;;;;12.70;99.90;;;;;;5053196;28;19940;-78
2021/05/24 06:28:53;;;;;;;;;;;12.60;99.90;;;;;;5051627;28;19944;-78
2021/05/24 06:31:19;;;;;;;;;;;12.70;99.90;;;;;;5052911;28;20399;-78
2021/05/24 06:33:44;;;;;;;;;;;12.50;99.90;;;;;;5051855;28;19904;-78
2021/05/24 06:36:10;;;;;;;;;;;12.30;99.90;;;;;;5051840;28;19905;-78
2021/05/24 06:38:35;;;;;;;;;;;12.30;99.90;;;;;;5051216;28;19911;-78
2021/05/24 06:41:01;;;;;;;;;;;12.50;99.90;;;;;;5051394;28;19911;-78
2021/05/24 06:43:26;;;;;;;;;;;12.90;99.90;;;;;;5051577;28;19939;-78
2021/05/24 06:45:52;;;;;;;;;;;13.20;99.90;;;;;;5051452;28;20448;-79
2021/05/24 06:48:17;;;;;;;;;;;13.40;99.90;;;;;;5052549;28;19919;-78
2021/05/24 06:50:43;;;;;;;;;;;13.60;99.90;;;;;;5052566;28;19915;-78
2021/05/24 06:53:08;;;;;;;;;;;13.30;99.90;;;;;;5051623;28;19991;-78
2021/05/24 06:55:34;;;;;;;;;;;13.50;99.90;;;;;;5050603;28;20011;-79
2021/05/24 06:57:59;;;;;;;;;;;13.90;99.90;;;;;;5050584;28;19912;-78
2021/05/24 07:00:25;;;;;;;;;;;13.60;99.90;;;;;;5051011;28;19912;-78
2021/05/24 07:02:50;;;;;;;;;;;13.50;99.90;;;;;;5052003;28;19908;-79
2021/05/24 07:05:16;;;;;;;;;;;13.50;99.90;;;;;;5050826;28;19911;-79
2021/05/24 07:07:41;;;;;;;;;;;13.70;99.90;;;;;;5050474;28;19904;-79
2021/05/24 07:10:07;;;;;;;;;;;14.00;99.90;;;;;;5051720;28;19936;-79
2021/05/24 07:12:34;;;;;;;;;;;14.50;99.90;;;;;;5050444;28;19908;-79
2021/05/24 07:15:02;;;;;;;;;;;14.50;99.90;;;;;;5054158;28;19904;-80
2021/05/24 07:17:28;;;;;;;;;;;16.00;99.90;;;;;;5059942;28;20287;-81
2021/05/24 07:19:53;;;;;;;;;;;18.10;99.90;;;;;;5061374;28;19905;-80
2021/05/24 07:22:18;;;;;;;;;;;18.50;99.90;;;;;;5061151;28;19917;-80
2021/05/24 07:24:44;;;;;;;;;;;19.40;99.90;;;;;;5060821;28;19908;-81
2021/05/24 07:27:10;;;;;;;;;;;20.70;99.90;;;;;;5062116;28;19905;-79
2021/05/24 07:29:35;;;;;;;;;;;20.30;99.90;;;;;;5060276;28;19958;-80
2021/05/24 07:32:01;;;;;;;;;;;21.10;99.90;;;;;;5061921;28;19904;-80
2021/05/24 07:34:26;;;;;;;3.40;0.70;;;22.70;94.80;;;;;;5062575;28;19905;-79
2021/05/24 07:36:53;;;;;;;4.78;1.45;;;23.90;92.00;;;;;;5063761;28;20029;-79
2021/05/24 07:39:18;;;;;;;0.98;0.77;;;25.30;85.00;;;;;;5061910;28;20027;-81
2021/05/24 07:41:44;;;;;;;1.70;0.93;;;26.50;75.00;;;;;;5063546;28;20033;-81
2021/05/24 07:44:10;;;;;;;0.70;0.60;;;26.50;70.80;;;;;;5065286;28;20051;-80
2021/05/24 07:46:35;;;;;;;1.13;0.63;;;26.30;66.80;;;;;;5065530;28;20046;-80
2021/05/24 07:49:01;;;;;;;4.45;0.82;;;25.40;70.50;;;;;;5063278;28;20400;-81
2021/05/24 07:51:26;;;;;;;;;;;25.20;69.10;;;;;;5060503;28;20021;-80
2021/05/24 07:53:54;;;;;;;;;;;24.90;68.90;;;;;;5065450;28;19905;-80
2021/05/24 07:56:20;;;;;;;;;;;25.30;68.80;;;;;;5067832;28;19916;-80
2021/05/24 07:58:46;;;;;;;0.40;0.40;;;26.70;62.30;;;;;;5065322;28;24056;-80
2021/05/24 08:01:12;;;;;;;;;;;26.90;65.50;;;;;;5064093;28;19927;-81
2021/05/24 08:03:38;;;;;;;;;;;28.40;61.20;;;;;;5066645;28;19911;-80
2021/05/24 08:06:03;;;;;;;;;;;28.70;60.50;;;;;;5066277;28;19904;-81
2021/05/24 08:08:29;;;;;;;;;;;30.10;57.40;;;;;;5068611;28;20377;-81
2021/05/24 08:10:54;;;;;;;;;;;29.20;58.40;;;;;;5072229;28;19909;-80
2021/05/24 08:13:20;;;;;;;;;;;28.60;58.00;;;;;;5072522;28;19896;-79
2021/05/24 08:15:45;;;;;;;;;;;27.30;57.90;;;;;;5068951;28;19912;-81
2021/05/24 08:18:10;;;;;;;;;;;26.70;60.00;;;;;;5071515;28;19905;-79
2021/05/24 08:20:37;;;;;;;1.17;0.43;;;28.50;60.90;;;;;;5065930;28;20048;-79
2021/05/24 08:23:04;;;;;;;1.80;0.70;;;29.90;56.40;;;;;;5063894;28;20117;-80
2021/05/24 08:25:29;;;;;;;;;;;29.00;57.30;;;;;;5068499;28;20029;-81
2021/05/24 08:27:55;;;;;;;;;;;28.80;54.80;;;;;;5068664;28;19912;-80
2021/05/24 08:30:21;;;;;;;0.40;0.30;;;28.20;57.70;;;;;;5066388;28;20344;-80
2021/05/24 08:32:47;;;;;;;0.83;0.73;;;28.70;57.80;;;;;;5068563;28;20025;-81
2021/05/24 08:35:13;;;;;;;;;;;28.80;55.50;;;;;;5068474;28;19931;-80
2021/05/24 08:37:38;;;;;;;;;;;28.90;54.40;;;;;;5067474;28;19974;-82
2021/05/24 08:40:05;;;;;;;;;;;29.80;55.50;;;;;;5067364;28;20470;-82
2021/05/24 08:42:33;;;;;;;;;;;29.90;54.10;;;;;;5067691;28;19935;-81
2021/05/24 08:44:59;;;;;;;;;;;30.30;52.30;;;;;;5070929;28;19958;-82
2021/05/24 08:47:25;;;;;;;;;;;29.80;54.00;;;;;;5069539;28;19904;-82
2021/05/24 08:49:51;;;;;;;;;;;29.10;55.10;;;;;;5069956;28;19909;-80
2021/05/24 08:52:17;;;;;;;;;;;29.90;52.80;;;;;;5061896;28;19915;-81
2021/05/24 08:54:42;;;;;;;;;;;30.20;51.00;;;;;;5061943;28;20330;-82
2021/05/24 08:57:08;;;;;;;0.60;0.47;;;29.60;52.10;;;;;;5062217;28;19911;-81
2021/05/24 08:59:34;;;;;;;;;;;29.40;55.00;;;;;;5070165;28;20532;-81
2021/05/24 09:01:59;;;;;;;0.85;0.60;;;29.80;51.30;;;;;;5066321;28;19905;-80
2021/05/24 09:04:57;;;;;;;;;;;30.10;54.70;;;;;;5062543;28;19908;-82
2021/05/24 09:07:24;;;;;;;;;;;29.90;52.50;;;;;;5028413;28;19940;-80
2021/05/24 09:10:05;;;;;;;;;;;29.40;52.50;;;;;;5061539;28;19954;-80
2021/05/24 09:12:32;;;;;;;;;;;28.80;52.80;;;;;;5058191;28;20382;-80
2021/05/24 09:15:00;;;;;;;0.95;0.43;;;27.60;52.00;;;;;;5058276;28;20132;-80
2021/05/24 09:17:39;;;;;;;;;;;27.60;55.80;;;;;;5058059;28;20029;-79
2021/05/24 09:20:12;;;;;;;;;;;28.50;55.50;;;;;;5058163;28;19908;-82
2021/05/24 09:22:38;;;;;;;;;;;28.60;53.10;;;;;;5060238;28;19917;-80
2021/05/24 09:25:03;;;;;;;;;;;28.90;53.50;;;;;;5071187;28;19919;-81
2021/05/24 09:27:35;;;;;;;;;;;28.10;58.80;;;;;;5078701;28;19947;-82
2021/05/24 09:30:01;;;;;;;;;;;27.90;55.20;;;;;;5079647;28;19938;-81
2021/05/24 09:32:29;;;;;;;0.37;0.37;;;27.40;54.70;;;;;;5075274;28;20020;-80
2021/05/24 09:34:58;;;;;;;0.88;0.32;;;26.30;58.10;;;;;;5074107;28;20469;-83
2021/05/24 09:37:40;;;;;;;0.95;0.60;;;26.70;60.20;;;;;;5073870;28;20074;-83
2021/05/24 09:40:21;;;;;;;1.65;0.57;;;27.10;58.30;;;;;;5073671;28;20025;-83
2021/05/24 09:42:47;;;;;;;2.30;1.05;;;26.40;56.90;;;;;;5073724;28;20158;-83
2021/05/24 09:45:21;;;;;;;1.67;0.70;;;25.70;58.20;;;;;;5076139;28;20036;-85
2021/05/24 09:47:48;;;;;;;0.38;0.38;;;26.20;61.00;;;;;;5077424;28;20749;-85
2021/05/24 09:50:20;;;;;;;0.75;0.45;;;26.00;56.40;;;;;;5075754;28;20040;-84
2021/05/24 09:52:47;;;;;;;;;;;25.70;57.20;;;;;;5075950;28;20101;-84
2021/05/24 09:55:12;;;;;;;;;;;25.20;57.80;;;;;;5072193;28;19999;-83
2021/05/24 09:57:49;;;;;;;;;;;25.30;61.30;;;;;;5066549;28;20081;-84
2021/05/24 10:00:17;;;;;;;;;;;26.20;59.60;;;;;;5063135;28;20096;-84
2021/05/24 10:02:46;;;;;;;0.88;0.50;;;25.90;59.20;;;;;;5073368;28;19936;-80
2021/05/24 10:05:12;;;;;;;0.50;0.40;;;26.30;58.20;;;;;;5071452;28;20541;-83
2021/05/24 10:07:37;;;;;;;;;;;26.70;57.20;;;;;;5077989;28;20028;-83
2021/05/24 10:10:03;;;;;;;;;;;26.30;59.70;;;;;;5076250;28;19905;-82
2021/05/24 10:12:29;;;;;;;;;;;26.70;56.30;;;;;;5077742;28;19904;-82
2021/05/24 10:14:58;;;;;;;;;;;26.80;58.00;;;;;;5065372;28;19923;-83
2021/05/24 10:17:24;;;;;;;;;;;26.10;56.00;;;;;;5074710;28;19915;-85
2021/05/24 10:19:50;;;;;;;;;;;25.90;58.60;;;;;;5077749;28;19999;-84
2021/05/24 10:22:15;;;;;;;;;;;25.90;58.40;;;;;;5070629;28;19921;-81
2021/05/24 10:24:41;;;;;;;;;;;25.70;59.20;;;;;;5068604;28;19905;-83
2021/05/24 10:27:06;;;;;;;;;;;25.60;57.20;;;;;;5066436;28;19958;-82
2021/05/24 10:29:32;;;;;;;;;;;25.50;55.40;;;;;;5075657;28;20007;-83
2021/05/24 10:31:58;;;;;;;;;;;26.30;60.10;;;;;;5061386;28;20314;-80
2021/05/24 10:34:24;;;;;;;;;;;26.20;55.10;;;;;;5057288;28;20283;-81
2021/05/24 10:37:07;;;;;;;;;;;25.50;57.40;;;;;;5057940;28;19905;-82
2021/05/24 10:39:45;;;;;;;;;;;26.00;58.40;;;;;;5058217;28;20039;-80
2021/05/24 10:42:13;;;;;;;;;;;26.20;58.50;;;;;;5063775;28;19905;-77
2021/05/24 10:44:40;;;;;;;;;;;26.20;58.70;;;;;;5073581;28;19909;-79
2021/05/24 10:47:18;;;;;;;;;;;26.30;55.90;;;;;;5070067;28;19946;-80
2021/05/24 10:50:06;;;;;;;;;;;25.60;58.20;;;;;;5064781;28;20188;-84
2021/05/24 10:52:33;;;;;;;;;;;25.80;59.60;;;;;;5054445;28;19905;-82
2021/05/24 10:55:00;;;;;;;;;;;26.00;52.50;;;;;;5058603;28;19905;-85
2021/05/24 10:57:29;;;;;;;;;;;26.00;54.00;;;;;;5063103;28;19966;-82
2021/05/24 10:59:55;;;;;;;;;;;26.70;54.30;;;;;;5055409;28;19913;-82
2021/05/24 11:02:26;;;;;;;;;;;27.40;59.40;;;;;;5056772;28;19973;-82
2021/05/24 11:04:55;;;;;;;;;;;27.10;53.90;;;;;;5061806;28;19911;-83
2021/05/24 11:07:24;;;;;;;;;;;27.20;55.90;;;;;;5057823;28;19911;-83
2021/05/24 11:09:50;;;;;;;;;;;27.30;52.90;;;;;;5057827;28;20007;-83
2021/05/24 11:12:27;;;;;;;;;;;27.70;50.70;;;;;;5055599;28;19952;-82
2021/05/24 11:15:04;;;;;;;;;;;27.40;52.70;;;;;;5060206;28;19951;-82
2021/05/24 11:17:50;;;;;;;;;;;27.50;53.90;;;;;;5067318;28;19916;-80
2021/05/24 11:20:26;;;;;;;;;;;27.80;50.60;;;;;;5061546;28;19896;-82
2021/05/24 11:26:15;;;;;;;;;;;27.80;51.90;;;;;;5062144;28;19940;-84
2021/05/24 11:28:49;;;;;;;;;;;26.70;55.20;;;;;;5065695;28;19919;-79
2021/05/24 11:31:19;;;;;;;;;;;26.20;56.10;;;;;;5061537;28;20002;-82
2021/05/24 11:33:48;;;;;;;;;;;25.60;59.90;;;;;;5058023;28;19909;-82
2021/05/24 11:36:15;;;;;;;;;;;25.20;54.00;;;;;;5059264;28;19932;-82
2021/05/24 11:38:58;;;;;;;;;;;24.50;55.80;;;;;;5059349;28;19980;-82
2021/05/24 11:41:29;;;;;;;;;;;24.10;55.30;;;;;;5058877;28;19932;-83
2021/05/24 11:43:55;;;;;;;;;;;24.00;58.60;;;;;;5063745;28;19987;-83
2021/05/24 11:46:20;;;;;;;;;;;24.00;56.80;;;;;;5064441;28;20390;-84
2021/05/24 11:48:48;;;;;;;;;;;23.60;59.30;;;;;;5065472;28;19909;-83
2021/05/24 11:51:15;;;;;;;;;;;23.70;56.20;;;;;;5065427;28;20212;-82
2021/05/24 11:53:57;;;;;;;;;;;23.80;54.70;;;;;;5067480;28;19905;-83
2021/05/24 11:56:23;;;;;;;;;;;23.60;55.70;;;;;;5066783;28;20332;-82
2021/05/24 11:59:01;;;;;;;;;;;23.70;57.80;;;;;;5064334;28;19983;-81
2021/05/24 12:01:27;;;;;;;;;;;23.90;60.40;;;;;;5073182;28;19916;-80
2021/05/24 12:03:53;;;;;;;;;;;23.40;55.10;;;;;;5069351;28;19936;-81
2021/05/24 12:06:19;;;;;;;;;;;23.70;56.20;;;;;;5071287;28;19980;-80
2021/05/24 12:08:45;;;;;;;;;;;24.20;64.60;;;;;;5063932;28;19947;-82
2021/05/24 12:11:13;;;;;;;;;;;23.90;58.10;;;;;;5061432;28;19904;-83
2021/05/24 12:14:02;;;;;;;;;;;23.20;59.40;;;;;;5054922;28;19905;-82
2021/05/24 12:16:28;;;;;;;;;;;23.00;61.00;;;;;;5054478;28;19919;-82
2021/05/24 12:18:55;;;;;;;;;;;24.00;63.90;;;;;;5054081;28;19999;-82
2021/05/24 12:21:37;;;;;;;;;;;24.70;61.90;;;;;;5053978;28;19913;-81
2021/05/24 12:24:04;;;;;;;;;;;24.80;61.30;;;;;;5054550;28;19904;-82
2021/05/24 12:26:30;;;;;;;;;;;24.20;60.50;;;;;;5055449;28;19999;-82
2021/05/24 12:28:56;;;;;;;;;;;24.40;57.50;;;;;;5053742;28;19996;-83
2021/05/24 12:31:22;;;;;;;;;;;23.80;57.20;;;;;;5053939;28;19905;-82
2021/05/24 12:33:48;;;;;;;;;;;23.20;58.30;;;;;;5054240;28;19911;-83
2021/05/24 12:36:17;;;;;;;;;;;23.40;60.10;;;;;;5054239;28;19905;-82
2021/05/24 12:38:55;;;;;;;;;;;23.90;57.40;;;;;;5053929;28;19940;-81
2021/05/24 12:41:21;;;;;;;;;;;24.80;58.30;;;;;;5054110;28;19952;-81
2021/05/24 12:43:48;;;;;;;;;;;25.00;58.90;;;;;;5055195;28;19943;-82
2021/05/24 12:46:14;;;;;;;;;;;24.80;56.40;;;;;;5053710;28;19916;-82
2021/05/24 12:48:40;;;;;;;;;;;25.00;59.30;;;;;;5053447;28;19909;-82
2021/05/24 12:51:14;;;;;;;;;;;25.30;57.60;;;;;;5053664;28;19905;-81
2021/05/24 12:53:39;;;;;;;;;;;25.10;57.10;;;;;;5052868;28;19955;-81
2021/05/24 12:56:06;;;;;;;;;;;25.90;60.00;;;;;;5053820;28;19909;-83
2021/05/24 12:58:35;;;;;;;;;;;26.10;58.20;;;;;;5054647;28;19904;-81
2021/05/24 13:01:02;;;;;;;;;;;26.10;57.60;;;;;;5055019;28;19912;-83
2021/05/24 13:03:43;;;;;;;;;;;25.70;58.60;;;;;;5053878;28;19905;-82
2021/05/24 13:06:09;;;;;;;;;;;25.70;57.60;;;;;;5054808;28;19912;-82
2021/05/24 13:08:35;;;;;;;;;;;24.40;55.80;;;;;;5054327;28;19912;-83
2021/05/24 13:11:02;;;;;;;;;;;24.40;56.10;;;;;;5053384;28;19904;-81
2021/05/24 13:13:27;;;;;;;;;;;24.20;57.80;;;;;;5054762;28;19905;-83
2021/05/24 13:15:58;;;;;;;;;;;23.90;54.20;;;;;;5053334;28;19905;-82
2021/05/24 13:31:32;;;;;;;;;;;24.10;58.80;;;;;;5054664;28;19912;-82
2021/05/24 13:33:58;;;;;;;;;;;23.70;57.30;;;;;;5052980;28;19915;-81
2021/05/24 13:36:31;;;;;;;;;;;23.60;57.60;;;;;;5053052;28;19999;-80
2021/05/24 13:38:57;;;;;;;;;;;23.40;58.90;;;;;;5052695;28;19912;-82
2021/05/24 13:41:22;;;;;;;;;;;23.40;59.00;;;;;;5052810;28;19905;-82
2021/05/24 13:43:48;;;;;;;;;;;23.20;58.50;;;;;;5052996;28;20359;-81
2021/05/24 13:46:13;;;;;;;;;;;22.60;60.90;;;;;;5052841;28;19995;-82
2021/05/24 13:48:38;;;;;;;;;;;22.30;60.50;;;;;;5053738;28;20371;-81
2021/05/24 13:51:04;;;;;;;;;;;22.10;59.10;;;;;;5054138;28;19908;-83
2021/05/24 13:53:29;;;;;;;;;;;21.70;60.30;;;;;;5053431;28;19905;-82
2021/05/24 13:55:55;;;;;;;;;;;21.40;60.50;;;;;;5052711;28;19905;-81
2021/05/24 13:58:20;;;;;;;;;;;21.10;61.70;;;;;;5052436;28;19904;-80
2021/05/24 14:00:46;;;;;;;;;;;20.80;63.20;;;;;;5052665;28;19915;-81
2021/05/24 14:03:11;;;;;;;;;;;20.70;64.30;;;;;;5052425;28;19916;-81
2021/05/24 14:05:37;;;;;;;;;;;20.70;64.60;;;;;;5052157;28;19904;-84
2021/05/24 14:08:02;;;;;;;;;;;20.60;65.00;;;;;;5052277;28;20364;-84
2021/05/24 14:10:27;;;;;;;;;;;20.50;65.90;;;;;;5052087;28;19927;-83
2021/05/24 14:12:53;;;;;;;;;;;20.10;68.30;;;;;;5052091;28;19999;-82
2021/05/24 14:15:19;;;;;;;;;;;19.40;70.00;;;;;;5052149;28;19944;-82
2021/05/24 14:17:45;;;;;;;;;;;19.30;71.90;;;;;;5051759;28;19908;-81
2021/05/24 14:20:11;;;;;;;;;;;19.10;72.30;;;;;;5051468;28;19904;-83
2021/05/24 14:22:39;;;;;;;;;;;18.70;74.60;;;;;;5053178;28;19905;-83
2021/05/24 14:25:05;;;;;;;;;;;18.50;74.20;;;;;;5051908;28;19908;-82
2021/05/24 14:27:30;;;;;;;;;;;18.40;75.50;;;;;;5051735;28;19912;-82
2021/05/24 14:29:56;;;;;;;;;;;18.20;76.30;;;;;;5052658;28;19999;-82